sensor_id;sensor_type;location;lat;lon;timestamp;temperature;humidity
37972;DHT22;23794;48.234;8.344;2022-09-06T00:01:22;17.00;99.90
37972;DHT22;23794;48.234;8.344;2022-09-06T00:03:49;17.00;99.90
37972;DHT22;23794;48.234;8.344;2022-09-06T00:06:18;17.00;99.90
37972;DHT22;23794;48.234;8.344;2022-09-06T00:08:46;16.90;99.90
37972;DHT22;23794;48.234;8.344;2022-09-06T00:11:14;16.90;99.90
37972;DHT22;23794;48.234;8.344;2022-09-06T00:13:42;16.90;99.90
37972;DHT22;23794;48.234;8.344;2022-09-06T00:16:15;16.80;99.90
37972;DHT22;23794;48.234;8.344;2022-09-06T00:18:43;16.80;99.90
37972;DHT22;23794;48.234;8.344;2022-09-06T00:21:16;16.70;99.90
37972;DHT22;23794;48.234;8.344;2022-09-06T00:23:43;16.80;99.90
37972;DHT22;23794;48.234;8.344;2022-09-06T00:26:11;16.70;99.90
37972;DHT22;23794;48.234;8.344;2022-09-06T00:28:38;16.60;99.90
37972;DHT22;23794;48.234;8.344;2022-09-06T00:31:24;16.70;99.90
37972;DHT22;23794;48.234;8.344;2022-09-06T00:33:52;16.80;99.90
37972;DHT22;23794;48.234;8.344;2022-09-06T00:36:19;16.80;99.90
37972;DHT22;23794;48.234;8.344;2022-09-06T00:38:46;16.60;99.90
37972;DHT22;23794;48.234;8.344;2022-09-06T00:41:15;16.70;99.90
37972;DHT22;23794;48.234;8.344;2022-09-06T00:43:42;16.80;99.90
37972;DHT22;23794;48.234;8.344;2022-09-06T00:46:13;16.90;99.90
37972;DHT22;23794;48.234;8.344;2022-09-06T00:48:41;16.80;99.90
37972;DHT22;23794;48.234;8.344;2022-09-06T00:51:12;16.60;99.90
37972;DHT22;23794;48.234;8.344;2022-09-06T00:53:39;16.60;99.90
37972;DHT22;23794;48.234;8.344;2022-09-06T00:56:07;16.70;99.90
37972;DHT22;23794;48.234;8.344;2022-09-06T00:58:35;16.60;99.90
37972;DHT22;23794;48.234;8.344;2022-09-06T01:01:02;16.60;99.90
37972;DHT22;23794;48.234;8.344;2022-09-06T01:03:30;16.50;99.90
37972;DHT22;23794;48.234;8.344;2022-09-06T01:09:20;16.50;99.90
37972;DHT22;23794;48.234;8.344;2022-09-06T01:11:57;16.60;99.90
37972;DHT22;23794;48.234;8.344;2022-09-06T01:17:48;16.50;99.90
37972;DHT22;23794;48.234;8.344;2022-09-06T01:20:34;16.50;99.90
37972;DHT22;23794;48.234;8.344;2022-09-06T01:28:24;16.50;99.90
37972;DHT22;23794;48.234;8.344;2022-09-06T01:30:59;16.50;99.90
37972;DHT22;23794;48.234;8.344;2022-09-06T01:36:15;16.50;99.90
37972;DHT22;23794;48.234;8.344;2022-09-06T01:38:43;16.50;99.90
37972;DHT22;23794;48.234;8.344;2022-09-06T01:41:10;16.70;99.90
37972;DHT22;23794;48.234;8.344;2022-09-06T01:43:39;16.70;99.90
37972;DHT22;23794;48.234;8.344;2022-09-06T01:46:30;16.70;99.90
37972;DHT22;23794;48.234;8.344;2022-09-06T01:49:21;16.70;99.90
37972;DHT22;23794;48.234;8.344;2022-09-06T01:54:45;16.80;99.90
37972;DHT22;23794;48.234;8.344;2022-09-06T02:00:09;16.70;99.90
37972;DHT22;23794;48.234;8.344;2022-09-06T02:05:30;16.80;99.90
37972;DHT22;23794;48.234;8.344;2022-09-06T02:08:00;16.70;99.90
37972;DHT22;23794;48.234;8.344;2022-09-06T02:10:36;16.70;99.90
37972;DHT22;23794;48.234;8.344;2022-09-06T02:13:06;16.70;99.90
37972;DHT22;23794;48.234;8.344;2022-09-06T02:15:44;16.70;99.90
37972;DHT22;23794;48.234;8.344;2022-09-06T02:18:16;16.60;99.90
37972;DHT22;23794;48.234;8.344;2022-09-06T02:20:49;16.70;99.90
37972;DHT22;23794;48.234;8.344;2022-09-06T02:23:18;16.60;99.90
37972;DHT22;23794;48.234;8.344;2022-09-06T02:25:50;16.70;99.90
37972;DHT22;23794;48.234;8.344;2022-09-06T02:28:18;16.60;99.90
37972;DHT22;23794;48.234;8.344;2022-09-06T02:30:49;16.60;99.90
37972;DHT22;23794;48.234;8.344;2022-09-06T02:33:19;16.60;99.90
37972;DHT22;23794;48.234;8.344;2022-09-06T02:35:52;16.60;99.90
37972;DHT22;23794;48.234;8.344;2022-09-06T02:38:23;16.60;99.90
37972;DHT22;23794;48.234;8.344;2022-09-06T02:40:52;16.50;99.90
37972;DHT22;23794;48.234;8.344;2022-09-06T02:43:19;16.60;99.90
37972;DHT22;23794;48.234;8.344;2022-09-06T02:45:47;16.60;99.90
37972;DHT22;23794;48.234;8.344;2022-09-06T02:48:14;16.40;99.90
37972;DHT22;23794;48.234;8.344;2022-09-06T02:50:40;16.50;99.90
37972;DHT22;23794;48.234;8.344;2022-09-06T02:53:09;16.60;99.90
37972;DHT22;23794;48.234;8.344;2022-09-06T02:55:37;16.70;99.90
37972;DHT22;23794;48.234;8.344;2022-09-06T02:58:05;16.70;99.90
37972;DHT22;23794;48.234;8.344;2022-09-06T03:00:32;16.60;99.90
37972;DHT22;23794;48.234;8.344;2022-09-06T03:02:59;16.70;99.90
37972;DHT22;23794;48.234;8.344;2022-09-06T03:05:27;16.70;99.90
37972;DHT22;23794;48.234;8.344;2022-09-06T03:07:54;16.70;99.90
37972;DHT22;23794;48.234;8.344;2022-09-06T03:10:22;16.70;99.90
37972;DHT22;23794;48.234;8.344;2022-09-06T03:12:49;16.80;99.90
37972;DHT22;23794;48.234;8.344;2022-09-06T03:15:16;16.80;99.90
37972;DHT22;23794;48.234;8.344;2022-09-06T03:17:43;16.70;99.90
37972;DHT22;23794;48.234;8.344;2022-09-06T03:20:11;16.70;99.90
37972;DHT22;23794;48.234;8.344;2022-09-06T03:22:39;16.70;99.90
37972;DHT22;23794;48.234;8.344;2022-09-06T03:25:07;16.70;99.90
37972;DHT22;23794;48.234;8.344;2022-09-06T03:27:34;16.70;99.90
37972;DHT22;23794;48.234;8.344;2022-09-06T03:30:01;16.60;99.90
37972;DHT22;23794;48.234;8.344;2022-09-06T03:32:28;16.60;99.90
37972;DHT22;23794;48.234;8.344;2022-09-06T03:34:54;16.50;99.90
37972;DHT22;23794;48.234;8.344;2022-09-06T03:37:21;16.50;99.90
37972;DHT22;23794;48.234;8.344;2022-09-06T03:39:48;16.40;99.90
37972;DHT22;23794;48.234;8.344;2022-09-06T03:42:15;16.40;99.90
37972;DHT22;23794;48.234;8.344;2022-09-06T03:44:42;16.50;99.90
37972;DHT22;23794;48.234;8.344;2022-09-06T03:47:09;16.40;99.90
37972;DHT22;23794;48.234;8.344;2022-09-06T03:49:36;16.30;99.90
37972;DHT22;23794;48.234;8.344;2022-09-06T03:52:02;16.30;99.90
37972;DHT22;23794;48.234;8.344;2022-09-06T03:54:29;16.30;99.90
37972;DHT22;23794;48.234;8.344;2022-09-06T03:56:56;16.20;99.90
37972;DHT22;23794;48.234;8.344;2022-09-06T03:59:23;16.10;99.90
37972;DHT22;23794;48.234;8.344;2022-09-06T04:01:49;16.10;99.90
37972;DHT22;23794;48.234;8.344;2022-09-06T04:04:16;16.10;99.90
37972;DHT22;23794;48.234;8.344;2022-09-06T04:06:43;16.10;99.90
37972;DHT22;23794;48.234;8.344;2022-09-06T04:09:10;16.10;99.90
37972;DHT22;23794;48.234;8.344;2022-09-06T04:11:36;16.20;99.90
37972;DHT22;23794;48.234;8.344;2022-09-06T04:14:03;16.20;99.90
37972;DHT22;23794;48.234;8.344;2022-09-06T04:16:30;16.20;99.90
37972;DHT22;23794;48.234;8.344;2022-09-06T04:18:57;16.30;99.90
37972;DHT22;23794;48.234;8.344;2022-09-06T04:21:29;16.20;99.90
37972;DHT22;23794;48.234;8.344;2022-09-06T04:23:56;16.10;99.90
37972;DHT22;23794;48.234;8.344;2022-09-06T04:26:23;16.00;99.90
37972;DHT22;23794;48.234;8.344;2022-09-06T04:28:50;16.00;99.90
37972;DHT22;23794;48.234;8.344;2022-09-06T04:31:17;16.00;99.90
37972;DHT22;23794;48.234;8.344;2022-09-06T04:33:43;16.00;99.90
37972;DHT22;23794;48.234;8.344;2022-09-06T04:36:11;16.00;99.90
37972;DHT22;23794;48.234;8.344;2022-09-06T04:38:40;16.00;99.90
37972;DHT22;23794;48.234;8.344;2022-09-06T04:41:12;15.90;99.90
37972;DHT22;23794;48.234;8.344;2022-09-06T04:43:39;16.00;99.90
37972;DHT22;23794;48.234;8.344;2022-09-06T04:46:15;16.00;99.90
37972;DHT22;23794;48.234;8.344;2022-09-06T04:48:46;15.90;99.90
37972;DHT22;23794;48.234;8.344;2022-09-06T04:51:13;15.90;99.90
37972;DHT22;23794;48.234;8.344;2022-09-06T04:53:40;15.80;99.90
37972;DHT22;23794;48.234;8.344;2022-09-06T04:56:15;15.70;99.90
37972;DHT22;23794;48.234;8.344;2022-09-06T04:58:45;15.80;99.90
37972;DHT22;23794;48.234;8.344;2022-09-06T05:01:12;15.90;99.90
37972;DHT22;23794;48.234;8.344;2022-09-06T05:03:39;15.90;99.90
37972;DHT22;23794;48.234;8.344;2022-09-06T05:06:21;15.90;99.90
37972;DHT22;23794;48.234;8.344;2022-09-06T05:08:48;15.80;99.90
37972;DHT22;23794;48.234;8.344;2022-09-06T05:11:15;15.90;99.90
37972;DHT22;23794;48.234;8.344;2022-09-06T05:13:44;15.90;99.90
37972;DHT22;23794;48.234;8.344;2022-09-06T05:16:12;15.90;99.90
37972;DHT22;23794;48.234;8.344;2022-09-06T05:18:39;16.00;99.90
37972;DHT22;23794;48.234;8.344;2022-09-06T05:21:06;16.10;99.90
37972;DHT22;23794;48.234;8.344;2022-09-06T05:23:33;16.10;99.90
37972;DHT22;23794;48.234;8.344;2022-09-06T05:26:00;16.10;99.90
37972;DHT22;23794;48.234;8.344;2022-09-06T05:28:27;16.10;99.90
37972;DHT22;23794;48.234;8.344;2022-09-06T05:31:11;16.10;99.90
37972;DHT22;23794;48.234;8.344;2022-09-06T05:33:38;16.00;99.90
37972;DHT22;23794;48.234;8.344;2022-09-06T05:36:05;16.10;99.90
37972;DHT22;23794;48.234;8.344;2022-09-06T05:38:32;16.10;99.90
37972;DHT22;23794;48.234;8.344;2022-09-06T05:40:59;16.10;99.90
37972;DHT22;23794;48.234;8.344;2022-09-06T05:43:26;15.90;99.90
37972;DHT22;23794;48.234;8.344;2022-09-06T05:45:53;15.80;99.90
37972;DHT22;23794;48.234;8.344;2022-09-06T05:48:20;15.80;99.90
37972;DHT22;23794;48.234;8.344;2022-09-06T05:50:57;15.90;99.90
37972;DHT22;23794;48.234;8.344;2022-09-06T05:53:24;16.20;99.90
37972;DHT22;23794;48.234;8.344;2022-09-06T05:55:51;16.40;99.90
37972;DHT22;23794;48.234;8.344;2022-09-06T05:58:17;16.60;99.90
37972;DHT22;23794;48.234;8.344;2022-09-06T06:00:44;16.70;99.90
37972;DHT22;23794;48.234;8.344;2022-09-06T06:03:11;16.80;99.90
37972;DHT22;23794;48.234;8.344;2022-09-06T06:05:38;17.00;99.90
37972;DHT22;23794;48.234;8.344;2022-09-06T06:08:04;17.10;99.90
37972;DHT22;23794;48.234;8.344;2022-09-06T06:10:31;17.20;99.90
37972;DHT22;23794;48.234;8.344;2022-09-06T06:13:04;17.30;99.90
37972;DHT22;23794;48.234;8.344;2022-09-06T06:15:30;17.40;99.90
37972;DHT22;23794;48.234;8.344;2022-09-06T06:17:57;17.30;99.90
37972;DHT22;23794;48.234;8.344;2022-09-06T06:20:24;17.40;99.90
37972;DHT22;23794;48.234;8.344;2022-09-06T06:22:51;17.50;99.90
37972;DHT22;23794;48.234;8.344;2022-09-06T06:25:18;17.60;99.90
37972;DHT22;23794;48.234;8.344;2022-09-06T06:27:48;17.70;99.90
37972;DHT22;23794;48.234;8.344;2022-09-06T06:30:15;17.80;99.90
37972;DHT22;23794;48.234;8.344;2022-09-06T06:32:44;18.00;99.90
37972;DHT22;23794;48.234;8.344;2022-09-06T06:35:11;18.10;99.90
37972;DHT22;23794;48.234;8.344;2022-09-06T06:37:38;18.30;99.90
37972;DHT22;23794;48.234;8.344;2022-09-06T06:40:05;18.50;99.90
37972;DHT22;23794;48.234;8.344;2022-09-06T06:42:32;18.60;99.90
37972;DHT22;23794;48.234;8.344;2022-09-06T06:44:59;18.70;99.90
37972;DHT22;23794;48.234;8.344;2022-09-06T06:47:26;18.80;99.90
37972;DHT22;23794;48.234;8.344;2022-09-06T06:49:52;18.90;99.90
37972;DHT22;23794;48.234;8.344;2022-09-06T06:52:19;18.90;99.90
37972;DHT22;23794;48.234;8.344;2022-09-06T06:54:47;19.10;99.90
37972;DHT22;23794;48.234;8.344;2022-09-06T06:57:15;19.30;99.90
37972;DHT22;23794;48.234;8.344;2022-09-06T06:59:42;19.50;99.90
37972;DHT22;23794;48.234;8.344;2022-09-06T07:02:09;19.60;99.90
37972;DHT22;23794;48.234;8.344;2022-09-06T07:04:36;19.70;99.90
37972;DHT22;23794;48.234;8.344;2022-09-06T07:07:03;19.90;99.90
37972;DHT22;23794;48.234;8.344;2022-09-06T07:09:51;19.90;99.90
37972;DHT22;23794;48.234;8.344;2022-09-06T07:12:38;20.00;99.90
37972;DHT22;23794;48.234;8.344;2022-09-06T07:15:05;20.10;99.90
37972;DHT22;23794;48.234;8.344;2022-09-06T07:17:32;20.00;99.90
37972;DHT22;23794;48.234;8.344;2022-09-06T07:20:00;20.00;99.90
37972;DHT22;23794;48.234;8.344;2022-09-06T07:22:42;19.90;99.90
37972;DHT22;23794;48.234;8.344;2022-09-06T07:25:09;20.10;99.90
37972;DHT22;23794;48.234;8.344;2022-09-06T07:27:42;20.20;99.90
37972;DHT22;23794;48.234;8.344;2022-09-06T07:30:15;20.40;99.90
37972;DHT22;23794;48.234;8.344;2022-09-06T07:32:41;20.60;99.90
37972;DHT22;23794;48.234;8.344;2022-09-06T07:35:08;20.80;99.90
37972;DHT22;23794;48.234;8.344;2022-09-06T07:37:35;20.80;99.90
37972;DHT22;23794;48.234;8.344;2022-09-06T07:40:03;20.90;99.90
37972;DHT22;23794;48.234;8.344;2022-09-06T07:42:30;20.90;99.90
37972;DHT22;23794;48.234;8.344;2022-09-06T07:45:03;21.00;99.90
37972;DHT22;23794;48.234;8.344;2022-09-06T07:47:30;21.10;99.90
37972;DHT22;23794;48.234;8.344;2022-09-06T07:50:17;21.00;99.90
37972;DHT22;23794;48.234;8.344;2022-09-06T07:53:05;20.90;99.90
37972;DHT22;23794;48.234;8.344;2022-09-06T07:55:37;20.80;99.90
37972;DHT22;23794;48.234;8.344;2022-09-06T07:58:04;20.90;99.90
37972;DHT22;23794;48.234;8.344;2022-09-06T08:00:31;20.90;99.90
37972;DHT22;23794;48.234;8.344;2022-09-06T08:02:57;21.00;99.90
37972;DHT22;23794;48.234;8.344;2022-09-06T08:05:24;21.10;99.90
37972;DHT22;23794;48.234;8.344;2022-09-06T08:08:11;21.20;99.90
37972;DHT22;23794;48.234;8.344;2022-09-06T08:10:58;21.30;99.90
37972;DHT22;23794;48.234;8.344;2022-09-06T08:13:25;21.40;99.90
37972;DHT22;23794;48.234;8.344;2022-09-06T08:15:59;21.60;99.90
37972;DHT22;23794;48.234;8.344;2022-09-06T08:18:26;21.70;99.90
37972;DHT22;23794;48.234;8.344;2022-09-06T08:20:53;21.60;99.90
37972;DHT22;23794;48.234;8.344;2022-09-06T08:23:20;21.50;99.90
37972;DHT22;23794;48.234;8.344;2022-09-06T08:25:57;21.50;99.90
37972;DHT22;23794;48.234;8.344;2022-09-06T08:28:24;21.50;99.90
37972;DHT22;23794;48.234;8.344;2022-09-06T08:31:02;21.40;99.90
37972;DHT22;23794;48.234;8.344;2022-09-06T08:33:30;21.30;99.90
37972;DHT22;23794;48.234;8.344;2022-09-06T08:35:57;21.30;99.90
37972;DHT22;23794;48.234;8.344;2022-09-06T08:38:26;21.20;99.90
37972;DHT22;23794;48.234;8.344;2022-09-06T08:40:54;21.30;99.90
37972;DHT22;23794;48.234;8.344;2022-09-06T08:43:21;21.30;99.90
37972;DHT22;23794;48.234;8.344;2022-09-06T08:45:55;21.20;99.90
37972;DHT22;23794;48.234;8.344;2022-09-06T08:48:27;21.20;99.90
37972;DHT22;23794;48.234;8.344;2022-09-06T08:51:35;21.10;99.90
37972;DHT22;23794;48.234;8.344;2022-09-06T08:54:35;21.00;99.90
37972;DHT22;23794;48.234;8.344;2022-09-06T08:59:39;20.90;99.90
37972;DHT22;23794;48.234;8.344;2022-09-06T09:02:15;20.90;99.90
37972;DHT22;23794;48.234;8.344;2022-09-06T09:04:49;20.80;99.90
37972;DHT22;23794;48.234;8.344;2022-09-06T09:10:26;20.50;99.90
37972;DHT22;23794;48.234;8.344;2022-09-06T09:12:53;20.10;99.90
37972;DHT22;23794;48.234;8.344;2022-09-06T09:15:20;20.00;99.90
37972;DHT22;23794;48.234;8.344;2022-09-06T09:17:49;20.00;99.90
37972;DHT22;23794;48.234;8.344;2022-09-06T09:20:17;19.90;99.90
37972;DHT22;23794;48.234;8.344;2022-09-06T09:22:44;20.10;99.90
37972;DHT22;23794;48.234;8.344;2022-09-06T09:25:22;20.40;99.90
37972;DHT22;23794;48.234;8.344;2022-09-06T09:27:51;20.70;99.90
37972;DHT22;23794;48.234;8.344;2022-09-06T09:30:25;21.00;99.90
37972;DHT22;23794;48.234;8.344;2022-09-06T09:33:26;21.10;99.90
37972;DHT22;23794;48.234;8.344;2022-09-06T09:35:55;21.40;99.90
37972;DHT22;23794;48.234;8.344;2022-09-06T09:38:30;21.40;99.90
37972;DHT22;23794;48.234;8.344;2022-09-06T09:43:29;21.30;99.90
37972;DHT22;23794;48.234;8.344;2022-09-06T09:46:09;21.10;99.90
37972;DHT22;23794;48.234;8.344;2022-09-06T09:48:36;21.10;99.90
37972;DHT22;23794;48.234;8.344;2022-09-06T09:51:23;21.00;99.90
37972;DHT22;23794;48.234;8.344;2022-09-06T09:54:13;21.10;99.90
37972;DHT22;23794;48.234;8.344;2022-09-06T09:56:48;21.10;99.90
37972;DHT22;23794;48.234;8.344;2022-09-06T09:59:33;21.20;99.90
37972;DHT22;23794;48.234;8.344;2022-09-06T10:02:41;21.30;99.90
37972;DHT22;23794;48.234;8.344;2022-09-06T10:07:50;21.60;99.90
37972;DHT22;23794;48.234;8.344;2022-09-06T10:10:26;21.70;99.90
37972;DHT22;23794;48.234;8.344;2022-09-06T10:13:26;21.70;99.90
37972;DHT22;23794;48.234;8.344;2022-09-06T10:15:56;21.60;99.90
37972;DHT22;23794;48.234;8.344;2022-09-06T10:18:41;21.70;99.90
37972;DHT22;23794;48.234;8.344;2022-09-06T10:21:11;21.80;99.90
37972;DHT22;23794;48.234;8.344;2022-09-06T10:26:50;22.10;99.90
37972;DHT22;23794;48.234;8.344;2022-09-06T10:29:41;22.20;99.90
37972;DHT22;23794;48.234;8.344;2022-09-06T10:38:28;23.90;99.90
37972;DHT22;23794;48.234;8.344;2022-09-06T10:40:58;24.30;99.90
37972;DHT22;23794;48.234;8.344;2022-09-06T10:43:42;24.50;99.90
37972;DHT22;23794;48.234;8.344;2022-09-06T10:46:14;24.70;99.90
37972;DHT22;23794;48.234;8.344;2022-09-06T10:48:44;24.90;99.90
37972;DHT22;23794;48.234;8.344;2022-09-06T10:54:10;25.10;99.90
37972;DHT22;23794;48.234;8.344;2022-09-06T10:56:56;25.30;99.90
37972;DHT22;23794;48.234;8.344;2022-09-06T10:59:33;25.40;99.90
37972;DHT22;23794;48.234;8.344;2022-09-06T11:04:38;25.60;99.90
37972;DHT22;23794;48.234;8.344;2022-09-06T11:07:36;25.70;99.90
37972;DHT22;23794;48.234;8.344;2022-09-06T11:12:52;25.60;99.90
37972;DHT22;23794;48.234;8.344;2022-09-06T11:15:21;25.30;99.90
37972;DHT22;23794;48.234;8.344;2022-09-06T11:20:40;25.50;99.90
37972;DHT22;23794;48.234;8.344;2022-09-06T11:23:15;25.70;99.90
37972;DHT22;23794;48.234;8.344;2022-09-06T11:26:10;26.00;99.90
37972;DHT22;23794;48.234;8.344;2022-09-06T11:28:53;26.30;99.90
37972;DHT22;23794;48.234;8.344;2022-09-06T11:31:28;26.40;99.90
37972;DHT22;23794;48.234;8.344;2022-09-06T11:34:29;26.40;99.90
37972;DHT22;23794;48.234;8.344;2022-09-06T11:37:02;26.60;99.20
37972;DHT22;23794;48.234;8.344;2022-09-06T11:39:35;26.80;98.60
37972;DHT22;23794;48.234;8.344;2022-09-06T11:45:20;26.80;96.10
37972;DHT22;23794;48.234;8.344;2022-09-06T11:47:50;27.00;96.60
37972;DHT22;23794;48.234;8.344;2022-09-06T11:58:17;27.30;93.50
37972;DHT22;23794;48.234;8.344;2022-09-06T12:06:39;26.70;91.50
37972;DHT22;23794;48.234;8.344;2022-09-06T12:09:27;26.60;94.00
37972;DHT22;23794;48.234;8.344;2022-09-06T12:11:55;26.60;92.70
37972;DHT22;23794;48.234;8.344;2022-09-06T12:14:37;26.50;93.70
37972;DHT22;23794;48.234;8.344;2022-09-06T12:19:50;26.40;92.60
37972;DHT22;23794;48.234;8.344;2022-09-06T12:25:14;26.60;91.80
37972;DHT22;23794;48.234;8.344;2022-09-06T12:27:55;26.60;91.70
37972;DHT22;23794;48.234;8.344;2022-09-06T12:30:38;26.30;91.70
37972;DHT22;23794;48.234;8.344;2022-09-06T12:33:31;26.10;92.80
37972;DHT22;23794;48.234;8.344;2022-09-06T12:36:19;26.10;93.20
37972;DHT22;23794;48.234;8.344;2022-09-06T12:39:11;26.20;94.00
37972;DHT22;23794;48.234;8.344;2022-09-06T12:41:40;26.20;93.60
37972;DHT22;23794;48.234;8.344;2022-09-06T12:44:09;26.20;93.10
37972;DHT22;23794;48.234;8.344;2022-09-06T12:46:36;26.20;93.90
37972;DHT22;23794;48.234;8.344;2022-09-06T12:49:10;26.40;95.20
37972;DHT22;23794;48.234;8.344;2022-09-06T12:51:39;26.40;94.60
37972;DHT22;23794;48.234;8.344;2022-09-06T12:54:24;26.30;94.60
37972;DHT22;23794;48.234;8.344;2022-09-06T12:56:52;26.20;94.80
37972;DHT22;23794;48.234;8.344;2022-09-06T12:59:23;26.30;95.40
37972;DHT22;23794;48.234;8.344;2022-09-06T13:02:03;26.30;94.50
37972;DHT22;23794;48.234;8.344;2022-09-06T13:04:58;26.20;95.00
37972;DHT22;23794;48.234;8.344;2022-09-06T13:07:22;26.20;94.90
37972;DHT22;23794;48.234;8.344;2022-09-06T13:09:52;25.70;95.50
37972;DHT22;23794;48.234;8.344;2022-09-06T13:12:42;25.70;97.00
37972;DHT22;23794;48.234;8.344;2022-09-06T13:15:13;25.70;96.30
37972;DHT22;23794;48.234;8.344;2022-09-06T13:17:40;25.60;97.10
37972;DHT22;23794;48.234;8.344;2022-09-06T13:22:50;25.50;96.40
37972;DHT22;23794;48.234;8.344;2022-09-06T13:27:53;25.60;96.50
37972;DHT22;23794;48.234;8.344;2022-09-06T13:30:38;25.80;96.30
37972;DHT22;23794;48.234;8.344;2022-09-06T13:33:24;25.90;96.20
37972;DHT22;23794;48.234;8.344;2022-09-06T13:36:05;26.00;96.30
37972;DHT22;23794;48.234;8.344;2022-09-06T13:44:04;26.10;96.20
37972;DHT22;23794;48.234;8.344;2022-09-06T13:46:33;26.00;96.10
37972;DHT22;23794;48.234;8.344;2022-09-06T13:49:04;26.00;96.20
37972;DHT22;23794;48.234;8.344;2022-09-06T13:51:32;25.80;96.20
37972;DHT22;23794;48.234;8.344;2022-09-06T13:54:09;25.70;96.30
37972;DHT22;23794;48.234;8.344;2022-09-06T13:56:37;25.70;96.70
37972;DHT22;23794;48.234;8.344;2022-09-06T13:59:05;25.70;96.00
37972;DHT22;23794;48.234;8.344;2022-09-06T14:01:33;25.70;96.90
37972;DHT22;23794;48.234;8.344;2022-09-06T14:04:00;25.70;96.20
37972;DHT22;23794;48.234;8.344;2022-09-06T14:06:27;25.50;96.40
37972;DHT22;23794;48.234;8.344;2022-09-06T14:08:54;25.40;97.10
37972;DHT22;23794;48.234;8.344;2022-09-06T14:11:33;25.30;97.20
37972;DHT22;23794;48.234;8.344;2022-09-06T14:14:00;25.30;97.30
37972;DHT22;23794;48.234;8.344;2022-09-06T14:16:27;25.20;97.90
37972;DHT22;23794;48.234;8.344;2022-09-06T14:18:54;25.30;97.80
37972;DHT22;23794;48.234;8.344;2022-09-06T14:21:21;25.40;98.30
37972;DHT22;23794;48.234;8.344;2022-09-06T14:23:51;25.40;98.00
37972;DHT22;23794;48.234;8.344;2022-09-06T14:26:19;25.30;97.30
37972;DHT22;23794;48.234;8.344;2022-09-06T14:28:47;25.40;97.60
37972;DHT22;23794;48.234;8.344;2022-09-06T14:31:16;25.60;97.50
37972;DHT22;23794;48.234;8.344;2022-09-06T14:33:43;25.90;95.90
37972;DHT22;23794;48.234;8.344;2022-09-06T14:36:12;26.10;95.50
37972;DHT22;23794;48.234;8.344;2022-09-06T14:38:41;26.20;95.50
37972;DHT22;23794;48.234;8.344;2022-09-06T14:41:08;26.30;95.40
37972;DHT22;23794;48.234;8.344;2022-09-06T14:43:36;26.50;95.40
37972;DHT22;23794;48.234;8.344;2022-09-06T14:46:09;26.80;95.60
37972;DHT22;23794;48.234;8.344;2022-09-06T14:48:37;27.00;94.60
37972;DHT22;23794;48.234;8.344;2022-09-06T14:51:15;27.10;95.20
37972;DHT22;23794;48.234;8.344;2022-09-06T14:53:50;26.80;94.10
37972;DHT22;23794;48.234;8.344;2022-09-06T14:56:18;26.80;94.10
37972;DHT22;23794;48.234;8.344;2022-09-06T14:58:45;27.00;93.80
37972;DHT22;23794;48.234;8.344;2022-09-06T15:01:18;27.20;93.50
37972;DHT22;23794;48.234;8.344;2022-09-06T15:03:50;27.10;92.30
37972;DHT22;23794;48.234;8.344;2022-09-06T15:06:19;26.60;92.40
37972;DHT22;23794;48.234;8.344;2022-09-06T15:08:47;26.10;92.80
37972;DHT22;23794;48.234;8.344;2022-09-06T15:11:47;26.00;93.60
37972;DHT22;23794;48.234;8.344;2022-09-06T15:14:24;26.10;94.00
37972;DHT22;23794;48.234;8.344;2022-09-06T15:16:53;26.30;93.00
37972;DHT22;23794;48.234;8.344;2022-09-06T15:19:26;26.40;92.90
37972;DHT22;23794;48.234;8.344;2022-09-06T15:21:54;26.50;93.20
37972;DHT22;23794;48.234;8.344;2022-09-06T15:24:22;26.40;92.90
37972;DHT22;23794;48.234;8.344;2022-09-06T15:26:49;26.30;93.10
37972;DHT22;23794;48.234;8.344;2022-09-06T15:29:15;26.10;93.60
37972;DHT22;23794;48.234;8.344;2022-09-06T15:31:42;26.00;93.80
37972;DHT22;23794;48.234;8.344;2022-09-06T15:34:17;25.70;93.60
37972;DHT22;23794;48.234;8.344;2022-09-06T15:36:44;25.60;93.70
37972;DHT22;23794;48.234;8.344;2022-09-06T15:39:10;25.40;93.70
37972;DHT22;23794;48.234;8.344;2022-09-06T15:41:39;25.20;93.90
37972;DHT22;23794;48.234;8.344;2022-09-06T15:44:15;25.00;94.40
37972;DHT22;23794;48.234;8.344;2022-09-06T15:46:51;25.00;94.90
37972;DHT22;23794;48.234;8.344;2022-09-06T15:49:24;24.80;95.10
37972;DHT22;23794;48.234;8.344;2022-09-06T15:51:55;24.70;96.50
37972;DHT22;23794;48.234;8.344;2022-09-06T15:54:23;24.50;96.00
37972;DHT22;23794;48.234;8.344;2022-09-06T15:57:09;24.50;96.50
37972;DHT22;23794;48.234;8.344;2022-09-06T15:59:38;24.50;96.90
37972;DHT22;23794;48.234;8.344;2022-09-06T16:02:05;24.50;96.60
37972;DHT22;23794;48.234;8.344;2022-09-06T16:04:32;24.50;97.20
37972;DHT22;23794;48.234;8.344;2022-09-06T16:06:59;24.40;97.10
37972;DHT22;23794;48.234;8.344;2022-09-06T16:09:26;24.30;97.20
37972;DHT22;23794;48.234;8.344;2022-09-06T16:11:53;24.30;97.80
37972;DHT22;23794;48.234;8.344;2022-09-06T16:14:20;24.20;97.30
37972;DHT22;23794;48.234;8.344;2022-09-06T16:16:47;24.20;97.80
37972;DHT22;23794;48.234;8.344;2022-09-06T16:19:14;24.10;97.70
37972;DHT22;23794;48.234;8.344;2022-09-06T16:21:42;24.10;98.10
37972;DHT22;23794;48.234;8.344;2022-09-06T16:24:11;24.00;98.30
37972;DHT22;23794;48.234;8.344;2022-09-06T16:26:43;23.90;98.50
37972;DHT22;23794;48.234;8.344;2022-09-06T16:29:13;23.80;99.00
37972;DHT22;23794;48.234;8.344;2022-09-06T16:31:41;23.60;99.00
37972;DHT22;23794;48.234;8.344;2022-09-06T16:34:09;23.50;98.40
37972;DHT22;23794;48.234;8.344;2022-09-06T16:36:36;23.30;98.30
37972;DHT22;23794;48.234;8.344;2022-09-06T16:39:04;23.20;98.70
37972;DHT22;23794;48.234;8.344;2022-09-06T16:41:40;23.20;99.70
37972;DHT22;23794;48.234;8.344;2022-09-06T16:44:09;23.10;99.60
37972;DHT22;23794;48.234;8.344;2022-09-06T16:46:47;23.00;99.50
37972;DHT22;23794;48.234;8.344;2022-09-06T16:49:15;23.00;99.30
37972;DHT22;23794;48.234;8.344;2022-09-06T16:51:43;22.90;98.80
37972;DHT22;23794;48.234;8.344;2022-09-06T16:54:11;22.90;99.90
37972;DHT22;23794;48.234;8.344;2022-09-06T16:56:39;22.90;99.90
37972;DHT22;23794;48.234;8.344;2022-09-06T16:59:08;22.90;99.90
37972;DHT22;23794;48.234;8.344;2022-09-06T17:01:37;22.80;99.90
37972;DHT22;23794;48.234;8.344;2022-09-06T17:04:07;22.70;99.90
37972;DHT22;23794;48.234;8.344;2022-09-06T17:06:35;22.70;99.90
37972;DHT22;23794;48.234;8.344;2022-09-06T17:09:07;22.70;99.90
37972;DHT22;23794;48.234;8.344;2022-09-06T17:11:34;22.60;99.90
37972;DHT22;23794;48.234;8.344;2022-09-06T17:14:03;22.40;99.90
37972;DHT22;23794;48.234;8.344;2022-09-06T17:16:29;22.40;99.90
37972;DHT22;23794;48.234;8.344;2022-09-06T17:19:15;22.40;99.90
37972;DHT22;23794;48.234;8.344;2022-09-06T17:21:42;22.50;99.90
37972;DHT22;23794;48.234;8.344;2022-09-06T17:24:10;22.40;99.90